Time;durP1;ratioP1;P1;durP2;ratioP2;P2;SDS_P1;SDS_P2;PMS_P1;PMS_P2;Temp;Humidity;BMP_temperature;BMP_pressure;BME280_temperature;BME280_humidity;BME280_pressure;Samples;Min_cycle;Max_cycle;Signal;HPM_P1;HPM_P2
2022/05/01 00:00:44;;;;;;;;;;;;;;;;;;5016526;28;19914;-77
2022/05/01 00:03:30;;;;;;;;;;;;;;;;;;5015208;28;19917;-77
2022/05/01 00:05:55;;;;;;;;;;;;;;;;;;5016451;28;20282;-77
2022/05/01 00:08:20;;;;;;;;;;;;;;;;;;5016385;28;19918;-77
2022/05/01 00:10:45;;;;;;;;;;;;;;;;;;4998787;28;19976;-76
2022/05/01 00:13:11;;;;;;;;;;;;;;;;;;5016428;28;19913;-77
2022/05/01 00:15:40;;;;;;;;;;;;;;;;;;5014422;28;19917;-77
2022/05/01 00:18:08;;;;;;;;;;;;;;;;;;5008295;28;20347;-77
2022/05/01 00:20:33;;;;;;;;;;;;;;;;;;5008744;28;19918;-77
2022/05/01 00:22:59;;;;;;;;;;;;;;;;;;4998207;28;19967;-77
2022/05/01 00:25:24;;;;;;;;;;;;;;;;;;5014410;28;19918;-77
2022/05/01 00:27:49;;;;;;;;;;;;;;;;;;5013898;28;20004;-77
2022/05/01 00:30:14;;;;;;;;;;;;;;;;;;5013807;28;20028;-77
2022/05/01 00:38:08;;;;;;;;;;;;;;;;;;5013402;28;19940;-77
2022/05/01 00:40:33;;;;;;;;;;;;;;;;;;5015855;28;19922;-77
2022/05/01 00:43:02;;;;;;;;;;;;;;;;;;5015577;28;19913;-78
2022/05/01 00:45:27;;;;;;;;;;;;;;;;;;5014419;28;19917;-78
2022/05/01 00:47:53;;;;;;;;;;;;;;;;;;5015118;28;19928;-77
2022/05/01 00:50:19;;;;;;;;;;;;;;;;;;5014384;28;19921;-74
2022/05/01 00:52:45;;;;;;;;;;;;;;;;;;5015493;28;20344;-75
2022/05/01 00:58:16;;;;;;;;;;;;;;;;;;5014567;28;20354;-74
2022/05/01 01:00:44;;;;;;;;;;;;;;;;;;5013504;28;20015;-74
2022/05/01 01:03:12;;;;;;;;;;;;;;;;;;4997308;28;20433;-76
2022/05/01 01:05:37;;;;;;;;;;;;;;;;;;4996947;28;19917;-75
2022/05/01 01:08:09;;;;;;;;;;;;;;;;;;5014007;28;20485;-74
2022/05/01 01:10:36;;;;;;;;;;;;;;;;;;5011523;28;19921;-74
2022/05/01 01:13:02;;;;;;;;;;;;;;;;;;5012265;28;19917;-76
2022/05/01 01:15:31;;;;;;;;;;;;;;;;;;5014174;28;19928;-74
2022/05/01 01:17:57;;;;;;;;;;;;;;;;;;5001041;28;20008;-75
2022/05/01 01:20:29;;;;;;;;;;;;;;;;;;4996596;28;20004;-74
2022/05/01 01:22:59;;;;;;;;;;;;;;;;;;5015064;28;19914;-74
2022/05/01 01:25:33;;;;;;;;;;;;;;;;;;5013485;28;19996;-74
2022/05/01 01:28:00;;;;;;;;;;;;;;;;;;5014984;28;19929;-74
2022/05/01 01:33:15;;;;;;;;;;;;;;;;;;5000478;28;19983;-74
2022/05/01 01:35:40;;;;;;;;;;;;;;;;;;4997960;28;19924;-74
2022/05/01 01:38:05;;;;;;;;;;;;;;;;;;5001021;28;20000;-72
2022/05/01 01:40:31;;;;;;;;;;;;;;;;;;5014565;28;19917;-72
2022/05/01 01:42:59;;;;;;;;;;;;;;;;;;5014644;28;19921;-73
2022/05/01 01:45:28;;;;;;;;;;;;;;;;;;5014732;28;20004;-72
2022/05/01 01:47:53;;;;;;;;;;;;;;;;;;5014774;28;19918;-73
2022/05/01 01:50:18;;;;;;;;;;;;;;;;;;5014351;28;20369;-72
2022/05/01 01:52:46;;;;;;;;;;;;;;;;;;4997791;28;20304;-73
2022/05/01 01:55:20;;;;;;;;;;;;;;;;;;5015058;28;20298;-73
2022/05/01 01:57:48;;;;;;;;;;;;;;;;;;5014987;28;19928;-73
2022/05/01 02:00:16;;;;;;;;;;;;;;;;;;5013882;28;19957;-73
2022/05/01 02:02:41;;;;;;;;;;;;;;;;;;5014418;28;20342;-73
2022/05/01 02:05:08;;;;;;;;;;;;;;;;;;5014390;28;19960;-74
2022/05/01 02:07:34;;;;;;;;;;;;;;;;;;5014529;28;19925;-73
2022/05/01 02:09:59;;;;;;;;;;;;;;;;;;4997628;28;20066;-73
2022/05/01 02:12:24;;;;;;;;;;;;;;;;;;4999294;28;19917;-73
2022/05/01 02:14:50;;;;;;;;;;;;;;;;;;5014561;28;19913;-73
2022/05/01 02:17:15;;;;;;;;;;;;;;;;;;5014062;28;19925;-73
2022/05/01 02:19:41;;;;;;;;;;;;;;;;;;5014006;28;19917;-73
2022/05/01 02:22:06;;;;;;;;;;;;;;;;;;4998309;28;19921;-73
2022/05/01 02:24:34;;;;;;;;;;;;;;;;;;5014043;28;19975;-73
2022/05/01 02:26:59;;;;;;;;;;;;;;;;;;5017445;28;19921;-74
2022/05/01 02:29:27;;;;;;;;;;;;;;;;;;5000558;28;20012;-73
2022/05/01 02:31:56;;;;;;;;;;;;;;;;;;4984541;28;19917;-73
2022/05/01 02:34:22;;;;;;;;;;;;;;;;;;5017450;28;19924;-73
2022/05/01 02:36:48;;;;;;;;;;;;;;;;;;5000465;28;19937;-73
2022/05/01 02:39:13;;;;;;;;;;;;;;;;;;5017608;28;20008;-74
2022/05/01 02:41:39;;;;;;;;;;;;;;;;;;5017862;28;20397;-73
2022/05/01 02:44:04;;;;;;;;;;;;;;;;;;5000509;28;19929;-73
2022/05/01 02:46:29;;;;;;;;;;;;;;;;;;5017793;28;20247;-73
2022/05/01 02:48:54;;;;;;;;;;;;;;;;;;5017056;28;19929;-73
2022/05/01 02:51:20;;;;;;;;;;;;;;;;;;4999512;28;19917;-73
2022/05/01 02:53:47;;;;;;;;;;;;;;;;;;4999812;28;20071;-73
2022/05/01 02:56:13;;;;;;;;;;;;;;;;;;4999230;28;19987;-73
2022/05/01 02:58:38;;;;;;;;;;;;;;;;;;5017180;28;20338;-73
2022/05/01 03:01:06;;;;;;;;;;;;;;;;;;5016271;28;19918;-73
2022/05/01 03:03:33;;;;;;;;;;;;;;;;;;4981608;28;20281;-73
2022/05/01 03:05:59;;;;;;;;;;;;;;;;;;4999045;28;20017;-73
2022/05/01 03:08:27;;;;;;;;;;;;;;;;;;5017105;28;20019;-73
2022/05/01 03:10:52;;;;;;;;;;;;;;;;;;5016932;28;19953;-73
2022/05/01 03:13:18;;;;;;;;;;;;;;;;;;5016647;28;19964;-73
2022/05/01 03:15:44;;;;;;;;;;;;;;;;;;5017472;28;19987;-73
2022/05/01 03:23:36;;;;;;;;;;;;;;;;;;5002409;28;20227;-73
2022/05/01 03:26:02;;;;;;;;;;;;;;;;;;4999516;28;19917;-73
2022/05/01 03:28:27;;;;;;;;;;;;;;;;;;5010091;28;20290;-73
2022/05/01 03:30:56;;;;;;;;;;;;;;;;;;5015434;28;19929;-73
2022/05/01 03:33:22;;;;;;;;;;;;;;;;;;5015615;28;19914;-74
2022/05/01 03:35:48;;;;;;;;;;;;;;;;;;5015320;28;20380;-74
2022/05/01 03:38:14;;;;;;;;;;;;;;;;;;5015372;28;19935;-73
2022/05/01 03:40:39;;;;;;;;;;;;;;;;;;5009722;28;20004;-73
2022/05/01 03:43:04;;;;;;;;;;;;;;;;;;4997763;28;19964;-73
2022/05/01 03:45:29;;;;;;;;;;;;;;;;;;5016266;28;20262;-74
2022/05/01 03:47:57;;;;;;;;;;;;;;;;;;5015572;28;19933;-74
2022/05/01 03:50:22;;;;;;;;;;;;;;;;;;5016447;28;20016;-73
2022/05/01 03:52:48;;;;;;;;;;;;;;;;;;4994969;28;20015;-73
2022/05/01 03:55:13;;;;;;;;;;;;;;;;;;5011557;28;20008;-74
2022/05/01 03:57:38;;;;;;;;;;;;;;;;;;5014985;28;20293;-74
2022/05/01 04:00:10;;;;;;;;;;;;;;;;;;5007435;28;20024;-75
2022/05/01 04:02:42;;;;;;;;;;;;;;;;;;5014569;28;19918;-74
2022/05/01 04:05:08;;;;;;;;;;;;;;;;;;4998389;28;19932;-74
2022/05/01 04:07:33;;;;;;;;;;;;;;;;;;5014210;28;19917;-74
2022/05/01 04:09:58;;;;;;;;;;;;;;;;;;5015356;28;19987;-74
2022/05/01 04:12:23;;;;;;;;;;;;;;;;;;5006882;28;19929;-74
2022/05/01 04:14:49;;;;;;;;;;;;;;;;;;5010591;28;19918;-74
2022/05/01 04:17:14;;;;;;;;;;;;;;;;;;5013309;28;19928;-74
2022/05/01 04:19:39;;;;;;;;;;;;;;;;;;5015368;28;19929;-74
2022/05/01 04:22:05;;;;;;;;;;;;;;;;;;4998748;28;19917;-74
2022/05/01 04:24:30;;;;;;;;;;;;;;;;;;5015310;28;19992;-74
2022/05/01 04:26:55;;;;;;;;;;;;;;;;;;5012607;28;19922;-73
2022/05/01 04:29:42;;;;;;;;;;;;;;;;;;4998796;28;19921;-74
2022/05/01 04:32:08;;;;;;;;;;;;;;;;;;5014023;28;20016;-74
2022/05/01 04:34:34;;;;;;;;;;;;;;;;;;4994677;28;20393;-74
2022/05/01 04:36:59;;;;;;;;;;;;;;;;;;5010402;28;19994;-74
2022/05/01 04:39:25;;;;;;;;;;;;;;;;;;4994092;28;19913;-74
2022/05/01 04:41:50;;;;;;;;;;;;;;;;;;5014069;28;19928;-75
2022/05/01 04:44:15;;;;;;;;;;;;;;;;;;5010834;28;19995;-74
2022/05/01 04:46:43;;;;;;;;;;;;;;;;;;4981112;28;19921;-75
2022/05/01 04:49:09;;;;;;;;;;;;;;;;;;4998448;28;19996;-74
2022/05/01 04:51:34;;;;;;;;;;;;;;;;;;5015371;28;20355;-74
2022/05/01 04:53:59;;;;;;;;;;;;;;;;;;5015012;28;19988;-75
2022/05/01 04:59:08;;;;;;;;;;;;;;;;;;5015240;28;19928;-74
2022/05/01 05:01:35;;;;;;;;;;;;;;;;;;5013230;28;19917;-74
2022/05/01 05:04:00;;;;;;;;;;;;;;;;;;4998094;28;19919;-75
2022/05/01 05:06:28;;;;;;;;;;;;;;;;;;4997579;28;20008;-75
2022/05/01 05:11:37;;;;;;;;;;;;;;;;;;5015604;28;19940;-75
2022/05/01 05:14:05;;;;;;;;;;;;;;;;;;5013662;28;19913;-74
2022/05/01 05:16:31;;;;;;;;;;;;;;;;;;5014023;28;20283;-75
2022/05/01 05:18:56;;;;;;;;;;;;;;;;;;5013376;28;19948;-74
2022/05/01 05:21:23;;;;;;;;;;;;;;;;;;5009962;28;19926;-74
2022/05/01 05:23:48;;;;;;;;;;;;;;;;;;4994857;28;20694;-74
2022/05/01 05:26:16;;;;;;;;;;;;;;;;;;5010950;28;19917;-75
2022/05/01 05:28:41;;;;;;;;;;;;;;;;;;4998682;28;19921;-78
2022/05/01 05:31:10;;;;;;;;;;;;;;;;;;5005179;28;19975;-78
2022/05/01 05:33:35;;;;;;;;;;;;;;;;;;4997734;28;19918;-78
2022/05/01 05:36:03;;;;;;;;;;;;;;;;;;4996556;28;19980;-79
2022/05/01 05:38:28;;;;;;;;;;;;;;;;;;4998145;28;19928;-79
2022/05/01 05:40:53;;;;;;;;;;;;;;;;;;4997467;28;19928;-79
2022/05/01 05:43:18;;;;;;;;;;;;;;;;;;5013936;28;20250;-78
2022/05/01 05:45:45;;;;;;;;;;;;;;;;;;4997230;28;19927;-79
2022/05/01 05:48:10;;;;;;;;;;;;;;;;;;4996967;28;19932;-78
2022/05/01 05:50:35;;;;;;;;;;;;;;;;;;4997325;28;19996;-78
2022/05/01 05:53:01;;;;;;;;;;;;;;;;;;5014246;28;20011;-78
2022/05/01 05:55:26;;;;;;;;;;;;;;;;;;4994351;28;19961;-78
2022/05/01 05:57:51;;;;;;;;;;;;;;;;;;4999494;28;19926;-79
2022/05/01 06:00:19;;;;;;;;;;;;;;;;;;5000906;28;20238;-79
2022/05/01 06:02:44;;;;;;;;;;;;;;;;;;5019056;28;19968;-79
2022/05/01 06:05:09;;;;;;;;;;;;;;;;;;5017383;28;19948;-78
2022/05/01 06:07:34;;;;;;;;;;;;;;;;;;5017828;28;20220;-79
2022/05/01 06:10:02;;;;;;;;;;;;;;;;;;5017152;28;20393;-79
2022/05/01 06:12:28;;;;;;;;;;;;;;;;;;4998175;28;19926;-78
2022/05/01 06:14:53;;;;;;;;;;;;;;;;;;5016754;28;20359;-79
2022/05/01 06:17:18;;;;;;;;;;;;;;;;;;5016818;28;19917;-79
2022/05/01 06:19:44;;;;;;;;;;;;;;;;;;5016510;28;20311;-79
2022/05/01 06:22:09;;;;;;;;;;;;;;;;;;5018781;28;19968;-78
2022/05/01 06:24:35;;;;;;;;;;;;;;;;;;5018769;28;20266;-79
2022/05/01 06:27:00;;;;;;;;;;;;;;;;;;5018471;28;19944;-79
2022/05/01 06:29:34;;;;;;;;;;;;;;;;;;4999606;28;19961;-78
2022/05/01 06:32:02;;;;;;;;;;;;;;;;;;5018389;28;20003;-79
2022/05/01 06:34:28;;;;;;;;;;;;;;;;;;4985187;28;19968;-79
2022/05/01 06:37:00;;;;;;;;;;;;;;;;;;5018653;28;19945;-82
2022/05/01 06:39:25;;;;;;;;;;;;;;;;;;5005267;28;20331;-80
2022/05/01 06:41:53;;;;;;;;;;;;;;;;;;5000595;28;19929;-80
2022/05/01 06:44:21;;;;;;;;;;;;;;;;;;5001338;28;20327;-78
2022/05/01 06:46:48;;;;;;;;;;;;;;;;;;5018118;28;19964;-78
2022/05/01 06:49:14;;;;;;;;;;;;;;;;;;5017905;28;20287;-79
2022/05/01 06:51:39;;;;;;;;;;;;;;;;;;5000420;28;19913;-79
2022/05/01 06:54:07;;;;;;;;;;;;;;;;;;4999299;28;19952;-78
2022/05/01 06:56:32;;;;;;;;;;;;;;;;;;5001027;28;19992;-80
2022/05/01 06:59:00;;;;;;;;;;;;;;;;;;4999628;28;20266;-80
2022/05/01 07:01:25;;;;;;;;;;;;;;;;;;4984483;28;19921;-79
2022/05/01 07:03:50;;;;;;;;;;;;;;;;;;4984469;28;19914;-79
2022/05/01 07:06:18;;;;;;;;;;;;;;;;;;5000813;28;19914;-79
2022/05/01 07:08:43;;;;;;;;;;;;;;;;;;4998111;28;19918;-80
2022/05/01 07:11:09;;;;;;;;;;;;;;;;;;5017052;28;19923;-79
2022/05/01 07:13:35;;;;;;;;;;;;;;;;;;5017833;28;20331;-80
2022/05/01 07:16:01;;;;;;;;;;;;;;;;;;5000449;28;20011;-80
2022/05/01 07:18:26;;;;;;;;;;;;;;;;;;4998577;28;19992;-79
2022/05/01 07:20:51;;;;;;;;;;;;;;;;;;5016821;28;19932;-79
2022/05/01 07:23:21;;;;;;;;;;;;;;;;;;5017281;28;19917;-80
2022/05/01 07:25:47;;;;;;;;;;;;;;;;;;4999152;28;19921;-79
2022/05/01 07:28:12;;;;;;;;;;;;;;;;;;5017458;28;19980;-79
2022/05/01 07:30:37;;;;;;;;;;;;;;;;;;4999647;28;20012;-79
2022/05/01 07:33:02;;;;;;;;;;;;;;;;;;5016878;28;20322;-79
2022/05/01 07:35:28;;;;;;;;;;;;;;;;;;4999278;28;19917;-79
2022/05/01 07:37:53;;;;;;;;;;;;;;;;;;4999762;28;20228;-79
2022/05/01 07:40:20;;;;;;;;;;;;;;;;;;5016469;28;20258;-79
2022/05/01 07:42:45;;;;;;;;;;;;;;;;;;4999780;28;19942;-78
2022/05/01 07:45:10;;;;;;;;;;;;;;;;;;5015125;28;20371;-79
2022/05/01 07:47:36;;;;;;;;;;;;;;;;;;5016289;28;20351;-79
2022/05/01 07:50:01;;;;;;;;;;;;;;;;;;5016541;28;19953;-79
2022/05/01 07:52:27;;;;;;;;;;;;;;;;;;4995880;28;19971;-80
2022/05/01 07:54:52;;;;;;;;;;;;;;;;;;4999441;28;19917;-80
2022/05/01 07:57:17;;;;;;;;;;;;;;;;;;4999792;28;20099;-80
2022/05/01 07:59:45;;;;;;;;;;;;;;;;;;5016653;28;19988;-79
2022/05/01 08:02:10;;;;;;;;;;;;;;;;;;5016216;28;19940;-80
2022/05/01 08:04:35;;;;;;;;;;;;;;;;;;5016207;28;19918;-79
2022/05/01 08:07:01;;;;;;;;;;;;;;;;;;5015831;28;19921;-78
2022/05/01 08:09:27;;;;;;;;;;;;;;;;;;4983018;28;19923;-79
2022/05/01 08:11:52;;;;;;;;;;;;;;;;;;5014613;28;19918;-79
2022/05/01 08:14:18;;;;;;;;;;;;;;;;;;5015697;28;19922;-79
2022/05/01 08:16:43;;;;;;;;;;;;;;;;;;4999259;28;19961;-80
2022/05/01 08:21:55;;;;;;;;;;;;;;;;;;5000948;28;20393;-80
2022/05/01 08:24:20;;;;;;;;;;;;;;;;;;4998931;28;19924;-80
2022/05/01 08:26:51;;;;;;;;;;;;;;;;;;5016103;28;19917;-80
2022/05/01 08:29:18;;;;;;;;;;;;;;;;;;5016058;28;19945;-80
2022/05/01 08:31:44;;;;;;;;;;;;;;;;;;4998722;28;19917;-80
2022/05/01 08:34:12;;;;;;;;;;;;;;;;;;4998781;28;19968;-79
2022/05/01 08:36:37;;;;;;;;;;;;;;;;;;5015868;28;19913;-80
2022/05/01 08:39:03;;;;;;;;;;;;;;;;;;4982354;28;19940;-80
2022/05/01 08:41:29;;;;;;;;;;;;;;;;;;5015186;28;20001;-80
2022/05/01 08:43:55;;;;;;;;;;;;;;;;;;5015107;28;19929;-80
2022/05/01 08:46:27;;;;;;;;;;;;;;;;;;4981953;28;19917;-80
2022/05/01 08:48:55;;;;;;;;;;;;;;;;;;5016068;28;19921;-79
2022/05/01 08:51:20;;;;;;;;;;;;;;;;;;5014369;28;19922;-80
2022/05/01 08:53:46;;;;;;;;;;;;;;;;;;4981195;28;20338;-80
2022/05/01 08:56:11;;;;;;;;;;;;;;;;;;5014590;28;19951;-80
2022/05/01 08:58:40;;;;;;;;;;;;;;;;;;5014625;28;20367;-81
2022/05/01 09:01:08;;;;;;;;;;;;;;;;;;5014640;28;19913;-81
2022/05/01 09:03:33;;;;;;;;;;;;;;;;;;5014312;28;20363;-81
2022/05/01 09:05:59;;;;;;;;;;;;;;;;;;5014933;28;19957;-81
2022/05/01 09:08:24;;;;;;;;;;;;;;;;;;4988908;28;19917;-80
2022/05/01 09:10:50;;;;;;;;;;;;;;;;;;5015840;28;19992;-79
2022/05/01 09:13:15;;;;;;;;;;;;;;;;;;5014818;28;20012;-79
2022/05/01 09:18:41;;;;;;;;;;;;;;;;;;5002388;28;19929;-78
2022/05/01 09:21:09;;;;;;;;;;;;;;;;;;5013453;28;19968;-78
2022/05/01 09:23:37;;;;;;;;;;;;;;;;;;5014810;28;19921;-78
2022/05/01 09:26:11;;;;;;;;;;;;;;;;;;5013385;28;19940;-79
2022/05/01 09:28:54;;;;;;;;;;;;;;;;;;4993208;28;19980;-79
2022/05/01 09:31:38;;;;;;;;;;;;;;;;;;4990701;28;20008;-77
2022/05/01 09:34:19;;;;;;;;;;;;;;;;;;5009692;28;19921;-78
2022/05/01 09:40:00;;;;;;;;;;;;;;;;;;4995374;28;19928;-80
2022/05/01 09:45:34;;;;;;;;;;;;;;;;;;5013332;28;19993;-80
2022/05/01 09:48:03;;;;;;;;;;;;;;;;;;4978280;28;19925;-81
2022/05/01 09:50:42;;;;;;;;;;;;;;;;;;4994660;28;20353;-81
2022/05/01 09:53:08;;;;;;;;;;;;;;;;;;5014745;28;20363;-80
2022/05/01 09:55:33;;;;;;;;;;;;;;;;;;5014558;28;19914;-80
2022/05/01 09:58:07;;;;;;;;;;;;;;;;;;4980863;28;19917;-79
2022/05/01 10:00:42;;;;;;;;;;;;;;;;;;5014626;28;19917;-81
2022/05/01 10:03:19;;;;;;;;;;;;;;;;;;4997977;28;20354;-81
2022/05/01 10:05:48;;;;;;;;;;;;;;;;;;4981154;28;19925;-82
2022/05/01 10:08:13;;;;;;;;;;;;;;;;;;4997634;28;20335;-81
2022/05/01 10:10:41;;;;;;;;;;;;;;;;;;4997753;28;19932;-82
2022/05/01 10:13:07;;;;;;;;;;;;;;;;;;5014269;28;20274;-81
2022/05/01 10:15:35;;;;;;;;;;;;;;;;;;4997473;28;19917;-81
2022/05/01 10:18:04;;;;;;;;;;;;;;;;;;5011431;28;19929;-82
2022/05/01 10:20:50;;;;;;;;;;;;;;;;;;5012668;28;19956;-81
2022/05/01 10:23:16;;;;;;;;;;;;;;;;;;4997603;28;19917;-78
2022/05/01 10:25:55;;;;;;;;;;;;;;;;;;4980605;28;20003;-78
2022/05/01 10:28:29;;;;;;;;;;;;;;;;;;4997136;28;19961;-80
2022/05/01 10:33:59;;;;;;;;;;;;;;;;;;5000171;28;20008;-79
2022/05/01 10:36:46;;;;;;;;;;;;;;;;;;4992655;28;19936;-80
2022/05/01 10:39:15;;;;;;;;;;;;;;;;;;4996623;28;19917;-81
2022/05/01 10:41:44;;;;;;;;;;;;;;;;;;4981181;28;19918;-80
2022/05/01 10:44:30;;;;;;;;;;;;;;;;;;4999671;28;20011;-80
2022/05/01 10:46:55;;;;;;;;;;;;;;;;;;5000362;28;19918;-79
2022/05/01 10:49:34;;;;;;;;;;;;;;;;;;5000644;28;20304;-79
2022/05/01 10:52:19;;;;;;;;;;;;;;;;;;5000148;28;19997;-80
2022/05/01 10:54:54;;;;;;;;;;;;;;;;;;5017252;28;19921;-80
2022/05/01 10:57:20;;;;;;;;;;;;;;;;;;5004980;28;19917;-80
2022/05/01 10:59:48;;;;;;;;;;;;;;;;;;5017575;28;19932;-80
2022/05/01 11:02:29;;;;;;;;;;;;;;;;;;5017167;28;19914;-79
2022/05/01 11:04:58;;;;;;;;;;;;;;;;;;5017583;28;20301;-80
2022/05/01 11:07:27;;;;;;;;;;;;;;;;;;5000539;28;20004;-79
2022/05/01 11:09:56;;;;;;;;;;;;;;;;;;4997743;28;19925;-80
2022/05/01 11:12:28;;;;;;;;;;;;;;;;;;5025288;28;19914;-79
2022/05/01 11:15:14;;;;;;;;;;;;;;;;;;5014491;28;19921;-79
2022/05/01 11:17:52;;;;;;;;;;;;;;;;;;5000797;28;19940;-79
2022/05/01 11:20:21;;;;;;;;;;;;;;;;;;4998975;28;19917;-79
2022/05/01 11:23:10;;;;;;;;;;;;;;;;;;4999698;28;19924;-79
2022/05/01 11:25:39;;;;;;;;;;;;;;;;;;4997375;28;19913;-79
2022/05/01 11:28:07;;;;;;;;;;;;;;;;;;5016910;28;19918;-80
2022/05/01 11:30:37;;;;;;;;;;;;;;;;;;4999802;28;20306;-79
2022/05/01 11:33:02;;;;;;;;;;;;;;;;;;5022146;28;19932;-79
2022/05/01 11:35:46;;;;;;;;;;;;;;;;;;5016441;28;19918;-79
2022/05/01 11:38:13;;;;;;;;;;;;;;;;;;4997966;28;20016;-80
2022/05/01 11:40:46;;;;;;;;;;;;;;;;;;4999607;28;19971;-80
2022/05/01 11:43:18;;;;;;;;;;;;;;;;;;4996007;28;19913;-80
2022/05/01 11:45:45;;;;;;;;;;;;;;;;;;4991756;28;19921;-80
2022/05/01 11:48:14;;;;;;;;;;;;;;;;;;5020659;28;19926;-79
2022/05/01 11:50:48;;;;;;;;;;;;;;;;;;4997683;28;19917;-79
2022/05/01 11:53:27;;;;;;;;;;;;;;;;;;4998432;28;19913;-79
2022/05/01 12:04:36;;;;;;;;;;;;;;;;;;5001655;28;19924;-79
2022/05/01 12:07:08;;;;;;;;;;;;;;;;;;5016072;28;19918;-80
2022/05/01 12:09:46;;;;;;;;;;;;;;;;;;5015435;28;19913;-79
2022/05/01 12:12:20;;;;;;;;;;;;;;;;;;5015108;28;20338;-80
2022/05/01 12:14:46;;;;;;;;;;;;;;;;;;4998003;28;20285;-80
2022/05/01 12:17:18;;;;;;;;;;;;;;;;;;4999090;28;19914;-79
2022/05/01 12:19:44;;;;;;;;;;;;;;;;;;5016003;28;20349;-80
2022/05/01 12:22:14;;;;;;;;;;;;;;;;;;4998121;28;19917;-80
2022/05/01 12:24:39;;;;;;;;;;;;;;;;;;5015696;28;19913;-80
2022/05/01 12:27:08;;;;;;;;;;;;;;;;;;5015876;28;20012;-80
2022/05/01 12:29:33;;;;;;;;;;;;;;;;;;4998265;28;19918;-80
2022/05/01 12:32:05;;;;;;;;;;;;;;;;;;5015579;28;19929;-79
2022/05/01 12:34:59;;;;;;;;;;;;;;;;;;4998101;28;19928;-79
2022/05/01 12:37:38;;;;;;;;;;;;;;;;;;4997374;28;19926;-80
2022/05/01 12:40:03;;;;;;;;;;;;;;;;;;4997422;28;20282;-80
2022/05/01 12:45:17;;;;;;;;;;;;;;;;;;5014708;28;19995;-79
2022/05/01 12:47:45;;;;;;;;;;;;;;;;;;4997836;28;19930;-79
2022/05/01 12:50:24;;;;;;;;;;;;;;;;;;4998098;28;19922;-78
2022/05/01 12:52:50;;;;;;;;;;;;;;;;;;4996495;28;19913;-79
2022/05/01 12:55:16;;;;;;;;;;;;;;;;;;5022451;28;20401;-80
2022/05/01 12:57:48;;;;;;;;;;;;;;;;;;5023879;28;19913;-79
2022/05/01 13:00:30;;;;;;;;;;;;;;;;;;5013276;28;19992;-79
2022/05/01 13:03:28;;;;;;;;;;;;;;;;;;4980989;28;19928;-79
2022/05/01 13:05:59;;;;;;;;;;;;;;;;;;5014139;28;19989;-80
2022/05/01 13:08:24;;;;;;;;;;;;;;;;;;4991997;28;20020;-79
2022/05/01 13:11:08;;;;;;;;;;;;;;;;;;4997197;28;19996;-76
2022/05/01 13:13:52;;;;;;;;;;;;;;;;;;5010930;28;20008;-77
2022/05/01 13:16:39;;;;;;;;;;;;;;;;;;5013533;28;19917;-77
2022/05/01 13:19:08;;;;;;;;;;;;;;;;;;4995400;28;20278;-78
2022/05/01 13:21:37;;;;;;;;;;;;;;;;;;5013501;28;19924;-80
2022/05/01 13:24:17;;;;;;;;;;;;;;;;;;5001068;28;19925;-79
2022/05/01 13:27:17;;;;;;;;;;;;;;;;;;4976655;28;19917;-78
2022/05/01 13:29:42;;;;;;;;;;;;;;;;;;5013589;28;19933;-79
2022/05/01 13:32:08;;;;;;;;;;;;;;;;;;4996120;28;20902;-79
2022/05/01 13:34:35;;;;;;;;;;;;;;;;;;5013539;28;19928;-78
2022/05/01 13:37:01;;;;;;;;;;;;;;;;;;5013071;28;20273;-80
2022/05/01 13:45:43;;;;;;;;;;;;;;;;;;5012077;28;20373;-79
2022/05/01 13:48:37;;;;;;;;;;;;;;;;;;4994212;28;19940;-79
2022/05/01 13:51:03;;;;;;;;;;;;;;;;;;4993865;28;20012;-77
2022/05/01 13:53:28;;;;;;;;;;;;;;;;;;4990623;28;20083;-78
2022/05/01 13:55:57;;;;;;;;;;;;;;;;;;4993841;28;19952;-79
2022/05/01 13:58:23;;;;;;;;;;;;;;;;;;4995594;28;19924;-78
2022/05/01 14:00:48;;;;;;;;;;;;;;;;;;4993988;28;19922;-78
2022/05/01 14:03:14;;;;;;;;;;;;;;;;;;4994328;28;19926;-78
2022/05/01 14:05:39;;;;;;;;;;;;;;;;;;4992504;28;19918;-79
2022/05/01 14:08:05;;;;;;;;;;;;;;;;;;4991151;28;20011;-79
2022/05/01 14:10:32;;;;;;;;;;;;;;;;;;5012385;28;19921;-80
2022/05/01 14:12:57;;;;;;;;;;;;;;;;;;5012381;28;20400;-78
2022/05/01 14:15:23;;;;;;;;;;;;;;;;;;5012090;28;19996;-79
2022/05/01 14:17:48;;;;;;;;;;;;;;;;;;5011639;28;20013;-78
2022/05/01 14:20:13;;;;;;;;;;;;;;;;;;4995100;28;20258;-78
2022/05/01 14:22:39;;;;;;;;;;;;;;;;;;4998107;28;19984;-78
2022/05/01 14:25:05;;;;;;;;;;;;;;;;;;4996024;28;19921;-78
2022/05/01 14:27:30;;;;;;;;;;;;;;;;;;5016314;28;20313;-78
2022/05/01 14:29:56;;;;;;;;;;;;;;;;;;4993100;28;19971;-78
2022/05/01 14:32:33;;;;;;;;;;;;;;;;;;4999426;28;19964;-78
2022/05/01 14:35:05;;;;;;;;;;;;;;;;;;5014781;28;20626;-78
2022/05/01 14:37:40;;;;;;;;;;;;;;;;;;4999599;28;19972;-77
2022/05/01 14:40:07;;;;;;;;;;;;;;;;;;4997441;28;19922;-77
2022/05/01 14:42:33;;;;;;;;;;;;;;;;;;4999777;28;20262;-76
2022/05/01 14:45:10;;;;;;;;;;;;;;;;;;5015660;28;19927;-77
2022/05/01 14:47:53;;;;;;;;;;;;;;;;;;5015205;28;19921;-77
2022/05/01 14:50:19;;;;;;;;;;;;;;;;;;5016615;28;19922;-78
2022/05/01 14:52:45;;;;;;;;;;;;;;;;;;4997008;28;19927;-76
2022/05/01 14:55:13;;;;;;;;;;;;;;;;;;4976790;28;19918;-77
2022/05/01 14:57:52;;;;;;;;;;;;;;;;;;5016155;28;19980;-77
2022/05/01 15:08:39;;;;;;;;;;;;;;;;;;5012086;28;19932;-78
2022/05/01 15:11:04;;;;;;;;;;;;;;;;;;5008626;28;19920;-79
2022/05/01 15:13:30;;;;;;;;;;;;;;;;;;5017606;28;20013;-80
2022/05/01 15:16:16;;;;;;;;;;;;;;;;;;5013888;28;19917;-78
2022/05/01 15:19:00;;;;;;;;;;;;;;;;;;5015404;28;19952;-80
2022/05/01 15:24:24;;;;;;;;;;;;;;;;;;5013905;28;19937;-78
2022/05/01 15:26:51;;;;;;;;;;;;;;;;;;5016340;28;20381;-79
2022/05/01 15:29:18;;;;;;;;;;;;;;;;;;5014798;28;19928;-78
2022/05/01 15:31:43;;;;;;;;;;;;;;;;;;5016226;28;19917;-76
2022/05/01 15:34:11;;;;;;;;;;;;;;;;;;4995847;28;20013;-79
2022/05/01 15:36:38;;;;;;;;;;;;;;;;;;4991738;28;20387;-80
2022/05/01 15:39:05;;;;;;;;;;;;;;;;;;5016105;28;20003;-79
2022/05/01 15:41:33;;;;;;;;;;;;;;;;;;4996412;28;19921;-79
2022/05/01 15:44:00;;;;;;;;;;;;;;;;;;5014359;28;20197;-79
2022/05/01 15:46:31;;;;;;;;;;;;;;;;;;5012375;28;19975;-80
2022/05/01 15:54:26;;;;;;;;;;;;;;;;;;5018064;28;19928;-79
2022/05/01 15:56:55;;;;;;;;;;;;;;;;;;5014466;28;19948;-78
2022/05/01 15:59:23;;;;;;;;;;;;;;;;;;5019689;28;19991;-79
2022/05/01 16:01:54;;;;;;;;;;;;;;;;;;5016725;28;19917;-75
2022/05/01 16:04:22;;;;;;;;;;;;;;;;;;5004094;28;19925;-78
2022/05/01 16:06:51;;;;;;;;;;;;;;;;;;5005085;28;20231;-76
2022/05/01 16:09:22;;;;;;;;;;;;;;;;;;5014579;28;19921;-76
2022/05/01 16:11:51;;;;;;;;;;;;;;;;;;4997752;28;20343;-80
2022/05/01 16:14:18;;;;;;;;;;;;;;;;;;5014327;28;19932;-80
2022/05/01 16:17:10;;;;;;;;;;;;;;;;;;5014267;28;19918;-79
2022/05/01 16:19:38;;;;;;;;;;;;;;;;;;5006452;28;19921;-80
2022/05/01 16:22:07;;;;;;;;;;;;;;;;;;5012871;28;19987;-80
2022/05/01 16:24:45;;;;;;;;;;;;;;;;;;5012123;28;20331;-80
2022/05/01 16:27:14;;;;;;;;;;;;;;;;;;5013790;28;19944;-79
2022/05/01 16:29:42;;;;;;;;;;;;;;;;;;5008116;28;19980;-77
2022/05/01 16:32:10;;;;;;;;;;;;;;;;;;5009812;28;19928;-78
2022/05/01 16:34:54;;;;;;;;;;;;;;;;;;5009645;28;19917;-78
2022/05/01 16:37:19;;;;;;;;;;;;;;;;;;5014761;28;19961;-78
2022/05/01 16:39:45;;;;;;;;;;;;;;;;;;5011252;28;20362;-78
2022/05/01 16:42:13;;;;;;;;;;;;;;;;;;4995614;28;20327;-78
2022/05/01 16:44:39;;;;;;;;;;;;;;;;;;5013833;28;20298;-77
2022/05/01 16:47:04;;;;;;;;;;;;;;;;;;4992132;28;19921;-79
2022/05/01 16:49:29;;;;;;;;;;;;;;;;;;4995537;28;19921;-80
2022/05/01 16:51:58;;;;;;;;;;;;;;;;;;5014804;28;19917;-79
2022/05/01 16:54:23;;;;;;;;;;;;;;;;;;5012530;28;19918;-79
2022/05/01 16:56:49;;;;;;;;;;;;;;;;;;4991024;28;19921;-78
2022/05/01 16:59:16;;;;;;;;;;;;;;;;;;5002317;28;19937;-80
2022/05/01 17:01:42;;;;;;;;;;;;;;;;;;5012762;28;19960;-80
2022/05/01 17:04:08;;;;;;;;;;;;;;;;;;5014075;28;20466;-80
2022/05/01 17:06:42;;;;;;;;;;;;;;;;;;5014189;28;19928;-80
2022/05/01 17:09:07;;;;;;;;;;;;;;;;;;5010455;28;20023;-81
2022/05/01 17:11:33;;;;;;;;;;;;;;;;;;5013013;28;20068;-81
2022/05/01 17:14:17;;;;;;;;;;;;;;;;;;5012628;28;19932;-79
2022/05/01 17:17:04;;;;;;;;;;;;;;;;;;5013673;28;19929;-81
2022/05/01 17:19:32;;;;;;;;;;;;;;;;;;5012746;28;19965;-79
2022/05/01 17:22:04;;;;;;;;;;;;;;;;;;5014943;28;20023;-76
2022/05/01 17:27:53;;;;;;;;;;;;;;;;;;5014561;28;19994;-77
2022/05/01 17:30:25;;;;;;;;;;;;;;;;;;4999457;28;19917;-77
2022/05/01 17:33:10;;;;;;;;;;;;;;;;;;5014515;28;19928;-77
2022/05/01 17:35:35;;;;;;;;;;;;;;;;;;5013322;28;19917;-74
2022/05/01 17:38:10;;;;;;;;;;;;;;;;;;4996967;28;19917;-74
2022/05/01 17:40:38;;;;;;;;;;;;;;;;;;4998307;28;19940;-75
2022/05/01 17:43:09;;;;;;;;;;;;;;;;;;5015207;28;19921;-75
2022/05/01 17:45:38;;;;;;;;;;;;;;;;;;5014756;28;19920;-75
2022/05/01 17:48:25;;;;;;;;;;;;;;;;;;4997572;28;20247;-75
2022/05/01 17:50:50;;;;;;;;;;;;;;;;;;4997200;28;19925;-75
2022/05/01 17:53:21;;;;;;;;;;;;;;;;;;4997393;28;19975;-75
2022/05/01 17:55:47;;;;;;;;;;;;;;;;;;5012883;28;20214;-74
2022/05/01 18:01:35;;;;;;;;;;;;;;;;;;5011905;28;20286;-77
2022/05/01 18:12:26;;;;;;;;;;;;;;;;;;5009781;28;19932;-75
2022/05/01 18:15:05;;;;;;;;;;;;;;;;;;5011416;28;19917;-75
2022/05/01 18:27:25;;;;;;;;;;;;;;;;;;5011966;28;19932;-75
2022/05/01 18:30:17;;;;;;;;;;;;;;;;;;5010851;28;19928;-77
2022/05/01 18:33:02;;;;;;;;;;;;;;;;;;5012860;28;19923;-76